createdAt,value
2018-11-14T00:02:07.757Z,100.00
2018-11-14T00:04:37.569Z,100.00
2018-11-14T00:07:07.419Z,100.00
2018-11-14T00:09:37.810Z,100.00
2018-11-14T00:12:07.837Z,100.00
2018-11-14T00:14:40.330Z,100.00
2018-11-14T00:17:10.204Z,100.00
2018-11-14T00:19:40.538Z,100.00
2018-11-14T00:22:10.406Z,100.00
2018-11-14T00:24:40.270Z,100.00
2018-11-14T00:27:10.732Z,100.00
2018-11-14T00:29:41.413Z,100.00
2018-11-14T00:32:10.907Z,100.00
2018-11-14T00:34:40.777Z,100.00
2018-11-14T00:37:10.647Z,100.00
2018-11-14T00:39:40.870Z,100.00
2018-11-14T00:42:10.679Z,99.23
2018-11-14T00:44:40.765Z,99.51
2018-11-14T00:47:10.532Z,100.00
2018-11-14T00:49:40.563Z,100.00
2018-11-14T00:52:10.328Z,100.00
2018-11-14T00:54:40.147Z,100.00
2018-11-14T00:57:09.991Z,100.00
2018-11-14T00:59:41.055Z,100.00
2018-11-14T01:02:10.920Z,100.00
2018-11-14T01:04:40.740Z,99.41
2018-11-14T01:07:10.524Z,100.00
2018-11-14T01:09:40.379Z,99.83
2018-11-14T01:12:10.801Z,100.00
2018-11-14T01:14:40.664Z,99.82
2018-11-14T01:17:10.707Z,100.00
2018-11-14T01:19:40.537Z,99.67
2018-11-14T01:22:10.425Z,99.93
2018-11-14T01:24:41.546Z,100.00
2018-11-14T01:27:11.317Z,99.96
2018-11-14T01:29:41.089Z,100.00
2018-11-14T01:32:10.900Z,99.65
2018-11-14T01:34:42.157Z,99.77
2018-11-14T01:37:12.620Z,99.99
2018-11-14T01:39:42.536Z,100.00
2018-11-14T01:42:12.336Z,100.00
2018-11-14T01:44:42.162Z,99.66
2018-11-14T01:47:12.066Z,99.57
2018-11-14T01:50:26.660Z,99.23
2018-11-14T01:52:57.027Z,99.61
2018-11-14T01:55:27.142Z,100.00
2018-11-14T01:58:09.391Z,99.84
2018-11-14T02:00:39.266Z,99.37
2018-11-14T02:03:09.363Z,99.04
2018-11-14T02:05:39.238Z,99.54
2018-11-14T02:08:12.599Z,99.20
2018-11-14T02:10:42.387Z,99.63
2018-11-14T02:13:12.164Z,99.87
2018-11-14T02:15:42.073Z,99.97
2018-11-14T02:18:24.101Z,99.76
2018-11-14T02:20:54.915Z,99.90
2018-11-14T02:23:24.829Z,99.40
2018-11-14T02:25:54.693Z,99.16
2018-11-14T02:28:24.711Z,99.67
2018-11-14T02:30:55.130Z,100.00
2018-11-14T02:33:25.314Z,100.00
2018-11-14T02:35:55.118Z,100.00
2018-11-14T02:38:25.569Z,100.00
2018-11-14T02:40:54.820Z,100.00
2018-11-14T02:43:33.581Z,100.00
2018-11-14T02:46:04.306Z,99.81
2018-11-14T02:48:35.696Z,99.61
2018-11-14T02:51:27.854Z,99.61
2018-11-14T02:53:57.745Z,100.00
2018-11-14T02:56:27.935Z,100.00
2018-11-14T02:58:57.851Z,100.00
2018-11-14T03:01:29.518Z,100.00
2018-11-14T03:03:59.482Z,99.96
2018-11-14T03:06:29.307Z,100.00
2018-11-14T03:08:59.196Z,99.83
2018-11-14T03:11:29.055Z,100.00
2018-11-14T03:13:59.250Z,100.00
2018-11-14T03:16:29.084Z,100.00
2018-11-14T03:18:58.943Z,100.00
2018-11-14T03:21:28.759Z,100.00
2018-11-14T03:24:01.098Z,100.00
2018-11-14T03:26:30.969Z,100.00
2018-11-14T03:29:00.766Z,100.00
2018-11-14T03:31:30.592Z,99.97
2018-11-14T03:34:02.929Z,99.43
2018-11-14T03:36:32.724Z,100.00
2018-11-14T03:39:02.573Z,100.00
2018-11-14T03:41:32.373Z,100.00
2018-11-14T03:44:04.697Z,100.00
2018-11-14T03:46:35.479Z,100.00
2018-11-14T03:49:05.535Z,100.00
2018-11-14T03:51:36.853Z,100.00
2018-11-14T03:54:06.803Z,100.00
2018-11-14T03:56:36.777Z,100.00
2018-11-14T03:59:13.954Z,100.00
2018-11-14T04:01:43.860Z,100.00
2018-11-14T04:04:13.707Z,100.00
2018-11-14T04:06:43.580Z,100.00
2018-11-14T04:09:13.889Z,100.00
2018-11-14T04:11:43.688Z,100.00
2018-11-14T04:14:14.250Z,100.00
2018-11-14T04:16:44.104Z,100.00
2018-11-14T04:19:14.095Z,100.00
2018-11-14T04:21:43.914Z,100.00
2018-11-14T04:24:14.026Z,100.00
2018-11-14T04:26:43.918Z,100.00
2018-11-14T04:29:13.797Z,100.00
2018-11-14T04:31:43.646Z,100.00
2018-11-14T04:34:13.896Z,100.00
2018-11-14T04:36:45.819Z,100.00
2018-11-14T04:39:15.764Z,100.00
2018-11-14T04:41:45.599Z,100.00
2018-11-14T04:44:15.390Z,99.89
2018-11-14T04:46:45.260Z,100.00
2018-11-14T04:49:15.339Z,100.00
2018-11-14T04:51:45.131Z,99.95
2018-11-14T04:54:15.566Z,99.62
2018-11-14T04:56:47.711Z,100.00
2018-11-14T04:59:17.622Z,100.00
2018-11-14T05:01:47.866Z,100.00
2018-11-14T05:04:26.026Z,100.00
2018-11-14T05:06:55.889Z,99.79
2018-11-14T05:09:26.044Z,99.83
2018-11-14T05:11:55.980Z,100.00
2018-11-14T05:14:25.875Z,100.00
2018-11-14T05:16:55.717Z,100.00
2018-11-14T05:19:27.419Z,99.77
2018-11-14T05:21:57.275Z,99.75
2018-11-14T05:24:27.135Z,99.11
2018-11-14T05:26:56.950Z,99.18
2018-11-14T05:29:26.898Z,99.43
2018-11-14T05:31:56.796Z,99.45
2018-11-14T05:34:39.940Z,99.29
2018-11-14T05:37:09.809Z,99.14
2018-11-14T05:39:39.666Z,98.72
2018-11-14T05:42:09.447Z,98.53
2018-11-14T05:44:44.579Z,98.20
2018-11-14T05:47:17.234Z,98.39
2018-11-14T05:49:47.644Z,98.90
2018-11-14T05:52:17.571Z,99.03
2018-11-14T05:54:50.841Z,99.19
2018-11-14T06:11:01.690Z,99.29
2018-11-14T06:13:31.619Z,99.54
2018-11-14T06:16:01.505Z,99.74
2018-11-14T06:18:33.541Z,99.69
2018-11-14T06:21:03.570Z,100.00
2018-11-14T06:23:33.658Z,100.00
2018-11-14T06:26:03.485Z,100.00
2018-11-14T06:28:33.511Z,99.53
2018-11-14T06:31:03.478Z,99.25
2018-11-14T06:33:34.271Z,98.99
2018-11-14T06:36:04.679Z,98.72
2018-11-14T06:38:34.605Z,98.38
2018-11-14T06:41:05.637Z,98.89
2018-11-14T06:43:35.497Z,99.07
2018-11-14T06:46:05.516Z,99.02
2018-11-14T06:48:37.301Z,99.40
2018-11-14T06:51:07.823Z,98.93
2018-11-14T06:53:37.825Z,98.70
2018-11-14T06:56:07.735Z,98.95
2018-11-14T06:58:38.117Z,98.38
2018-11-14T07:01:07.948Z,98.35
2018-11-14T07:03:38.529Z,98.67
2018-11-14T07:06:08.186Z,98.69
2018-11-14T07:08:39.631Z,98.71
2018-11-14T07:11:13.841Z,98.34
2018-11-14T07:13:43.745Z,98.74
2018-11-14T07:16:16.075Z,98.65
2018-11-14T07:18:49.198Z,98.64
2018-11-14T07:21:18.982Z,98.97
2018-11-14T07:23:48.710Z,98.37
2018-11-14T07:26:18.483Z,98.46
2018-11-14T07:28:49.790Z,97.92
2018-11-14T07:31:54.877Z,96.86
2018-11-14T07:34:24.730Z,96.82
2018-11-14T07:36:55.898Z,96.95
2018-11-14T07:39:25.793Z,96.86
2018-11-14T07:41:55.933Z,96.78
2018-11-14T07:44:26.549Z,96.68
2018-11-14T07:47:00.538Z,96.90
2018-11-14T07:49:30.424Z,96.59
2018-11-14T07:52:00.125Z,96.77
2018-11-14T07:54:30.495Z,96.62
2018-11-14T07:57:01.215Z,96.47
2018-11-14T07:59:30.939Z,96.99
2018-11-14T08:02:00.681Z,96.84
2018-11-14T08:04:30.381Z,97.14
2018-11-14T08:07:00.091Z,97.45
2018-11-14T08:09:30.505Z,97.42
2018-11-14T08:12:00.497Z,97.88
2018-11-14T08:14:30.116Z,98.07
2018-11-14T08:17:00.691Z,98.39
2018-11-14T08:19:30.357Z,98.71
2018-11-14T08:22:00.066Z,98.85
2018-11-14T08:24:29.853Z,99.05
2018-11-14T08:26:59.980Z,99.67
2018-11-14T08:29:29.746Z,99.58
2018-11-14T08:31:59.452Z,99.02
2018-11-14T08:34:29.229Z,98.67
2018-11-14T08:36:58.916Z,97.87
2018-11-14T08:39:28.742Z,97.66
2018-11-14T08:41:58.847Z,97.02
2018-11-14T08:44:28.625Z,97.56
2018-11-14T08:46:58.427Z,97.60
2018-11-14T08:49:28.138Z,97.38
2018-11-14T08:51:58.135Z,97.78
2018-11-14T08:54:27.928Z,97.89
2018-11-14T08:56:57.625Z,98.67
2018-11-14T08:59:27.262Z,98.54
2018-11-14T09:01:57.077Z,97.73
2018-11-14T09:04:26.804Z,96.85
2018-11-14T09:06:56.734Z,96.43
2018-11-14T09:09:26.402Z,96.13
2018-11-14T09:11:56.169Z,95.47
2018-11-14T09:14:25.816Z,95.18
2018-11-14T09:16:55.534Z,94.41
2018-11-14T09:19:25.795Z,94.45
2018-11-14T09:21:55.816Z,93.72
2018-11-14T09:24:25.489Z,93.96
2018-11-14T09:26:55.238Z,93.05
2018-11-14T09:29:25.587Z,93.12
2018-11-14T09:31:59.296Z,93.30
2018-11-14T09:34:28.955Z,93.92
2018-11-14T09:36:58.674Z,93.99
2018-11-14T09:39:28.515Z,93.23
2018-11-14T09:41:58.743Z,93.03
2018-11-14T09:44:28.490Z,92.89
2018-11-14T09:46:59.000Z,92.73
2018-11-14T09:49:29.978Z,92.58
2018-11-14T09:52:00.067Z,92.83
2018-11-14T09:54:29.717Z,92.88
2018-11-14T09:56:59.859Z,92.74
2018-11-14T09:59:29.649Z,92.41
2018-11-14T10:01:59.374Z,92.04
2018-11-14T10:04:29.019Z,91.53
2018-11-14T10:06:58.729Z,92.49
2018-11-14T10:09:28.624Z,92.71
2018-11-14T10:11:58.947Z,91.62
2018-11-14T10:14:28.575Z,90.76
2018-11-14T10:16:58.314Z,90.27
2018-11-14T10:19:27.972Z,91.74
2018-11-14T10:21:57.747Z,90.94
2018-11-14T10:24:28.030Z,91.65
2018-11-14T10:26:58.458Z,92.33
2018-11-14T10:29:29.007Z,92.69
2018-11-14T10:31:59.313Z,92.42
2018-11-14T10:34:29.022Z,92.43
2018-11-14T10:36:59.485Z,92.11
2018-11-14T10:39:29.134Z,92.42
2018-11-14T10:42:00.167Z,92.88
2018-11-14T10:44:29.787Z,93.14
2018-11-14T10:46:59.466Z,93.81
2018-11-14T10:49:29.293Z,94.05
2018-11-14T10:51:58.902Z,94.23
2018-11-14T10:54:28.524Z,93.17
2018-11-14T10:56:59.714Z,92.55
2018-11-14T10:59:29.400Z,91.94
2018-11-14T11:02:04.323Z,92.30
2018-11-14T11:04:39.133Z,93.06
2018-11-14T11:07:14.011Z,92.66
2018-11-14T11:09:48.797Z,90.87
2018-11-14T11:12:23.577Z,91.32
2018-11-14T11:18:05.994Z,91.42
2018-11-14T11:20:35.774Z,91.46
2018-11-14T11:23:06.024Z,90.76
2018-11-14T11:25:35.794Z,90.02
2018-11-14T11:28:05.785Z,89.41
2018-11-14T11:30:35.479Z,88.50
2018-11-14T11:33:10.945Z,89.09
2018-11-14T11:35:41.148Z,88.85
2018-11-14T11:38:11.143Z,88.47
2018-11-14T11:40:40.723Z,88.18
2018-11-14T11:43:12.797Z,88.10
2018-11-14T11:45:42.445Z,88.02
2018-11-14T11:48:12.363Z,88.78
2018-11-14T11:50:42.423Z,88.59
2018-11-14T11:53:13.383Z,86.44
2018-11-14T11:55:43.006Z,85.74
2018-11-14T11:58:12.739Z,85.93
2018-11-14T12:00:43.461Z,87.59
2018-11-14T12:03:13.987Z,90.09
2018-11-14T12:05:43.701Z,88.31
2018-11-14T12:08:15.012Z,85.34
2018-11-14T12:10:44.729Z,84.45
2018-11-14T12:13:14.351Z,82.23
2018-11-14T12:15:44.349Z,81.96
2018-11-14T12:18:13.943Z,84.47
2018-11-14T12:20:43.610Z,84.47
2018-11-14T12:23:21.201Z,83.56
2018-11-14T12:25:50.860Z,84.49
2018-11-14T12:28:20.775Z,84.69
2018-11-14T12:30:50.651Z,84.60
2018-11-14T12:33:22.596Z,84.66
2018-11-14T12:35:52.262Z,84.72
2018-11-14T12:38:21.991Z,84.22
2018-11-14T12:40:51.649Z,85.38
2018-11-14T12:43:21.733Z,83.28
2018-11-14T12:45:51.428Z,83.35
2018-11-14T12:48:21.407Z,81.22
2018-11-14T12:50:51.088Z,78.82
2018-11-14T12:53:20.943Z,77.88
2018-11-14T12:55:51.446Z,76.49
2018-11-14T12:58:21.387Z,76.62
2018-11-14T13:00:51.129Z,77.28
2018-11-14T13:03:20.857Z,77.82
2018-11-14T13:05:50.519Z,76.84
2018-11-14T13:08:20.578Z,78.65
2018-11-14T13:10:50.274Z,80.08
2018-11-14T13:13:19.959Z,80.56
2018-11-14T13:15:49.660Z,79.53
2018-11-14T13:18:22.203Z,79.21
2018-11-14T13:20:52.811Z,79.00
2018-11-14T13:23:22.518Z,80.69
2018-11-14T13:25:52.294Z,81.19
2018-11-14T13:28:23.274Z,80.02
2018-11-14T13:30:52.951Z,81.35
2018-11-14T13:33:22.864Z,81.83
2018-11-14T13:35:52.560Z,81.89
2018-11-14T13:38:23.301Z,81.96
2018-11-14T13:40:53.004Z,82.55
2018-11-14T13:43:22.641Z,81.95
2018-11-14T13:45:52.563Z,82.58
2018-11-14T13:48:23.468Z,81.74
2018-11-14T13:50:53.302Z,81.84
2018-11-14T13:53:22.922Z,81.02
2018-11-14T13:55:52.638Z,80.79
2018-11-14T13:58:22.763Z,79.23
2018-11-14T14:00:52.452Z,80.26
2018-11-14T14:03:24.563Z,81.22
2018-11-14T14:05:55.968Z,81.40
2018-11-14T14:08:25.678Z,81.71
2018-11-14T14:10:55.319Z,81.76
2018-11-14T14:13:24.862Z,82.33
2018-11-14T14:15:55.005Z,82.47
2018-11-14T14:18:28.723Z,82.31
2018-11-14T14:20:58.442Z,82.25
2018-11-14T14:23:28.036Z,83.49
2018-11-14T14:25:57.964Z,83.54
2018-11-14T14:28:28.299Z,83.07
2018-11-14T14:30:58.238Z,82.88
2018-11-14T14:33:28.441Z,82.98
2018-11-14T14:35:58.433Z,83.20
2018-11-14T14:38:28.586Z,82.52
2018-11-14T14:40:58.155Z,82.27
2018-11-14T14:43:29.162Z,82.56
2018-11-14T14:45:58.858Z,82.60
2018-11-14T14:48:28.556Z,83.06
2018-11-14T14:50:58.295Z,83.18
2018-11-14T14:53:29.446Z,84.06
2018-11-14T14:55:59.103Z,84.39
2018-11-14T14:58:28.671Z,84.78
2018-11-14T15:00:58.329Z,84.97
2018-11-14T15:03:29.296Z,85.46
2018-11-14T15:05:59.151Z,86.07
2018-11-14T15:08:28.833Z,86.66
2018-11-14T15:10:58.564Z,87.01
2018-11-14T15:13:28.176Z,87.76
2018-11-14T15:15:58.427Z,87.88
2018-11-14T15:18:30.478Z,88.02
2018-11-14T15:21:00.642Z,87.45
2018-11-14T15:23:30.295Z,87.53
2018-11-14T15:26:00.243Z,87.25
2018-11-14T15:28:30.313Z,87.57
2018-11-14T15:31:00.000Z,88.35
2018-11-14T15:33:29.927Z,89.64
2018-11-14T15:36:00.566Z,89.74
2018-11-14T15:38:30.223Z,89.88
2018-11-14T15:41:00.119Z,89.51
2018-11-14T15:43:30.190Z,89.38
2018-11-14T15:45:59.871Z,89.56
2018-11-14T15:48:29.555Z,89.99
2018-11-14T15:50:59.636Z,90.67
2018-11-14T15:53:31.574Z,90.68
2018-11-14T15:56:01.524Z,90.49
2018-11-14T15:58:31.154Z,90.87
2018-11-14T16:01:00.789Z,90.88
2018-11-14T16:03:30.440Z,90.98
2018-11-14T16:06:01.255Z,91.36
2018-11-14T16:08:32.238Z,91.25
2018-11-14T16:11:01.868Z,91.21
2018-11-14T16:13:31.556Z,91.54
2018-11-14T16:16:01.634Z,91.90
2018-11-14T16:18:31.289Z,92.28
2018-11-14T16:21:01.109Z,93.14
2018-11-14T16:23:32.093Z,93.19
2018-11-14T16:26:01.767Z,93.50
2018-11-14T16:28:31.344Z,93.65
2018-11-14T16:31:00.982Z,93.82
2018-11-14T16:33:30.847Z,93.41
2018-11-14T16:36:00.900Z,93.85
2018-11-14T16:38:30.917Z,94.37
2018-11-14T16:41:01.610Z,94.70
2018-11-14T16:43:31.257Z,94.74
2018-11-14T16:46:00.965Z,94.51
2018-11-14T16:48:30.738Z,95.06
2018-11-14T16:51:00.943Z,94.66
2018-11-14T16:53:30.953Z,94.77
2018-11-14T16:56:00.778Z,95.00
2018-11-14T16:58:30.579Z,95.96
2018-11-14T17:01:00.277Z,96.04
2018-11-14T17:03:30.399Z,95.64
2018-11-14T17:06:00.823Z,95.89
2018-11-14T17:08:30.603Z,96.29
2018-11-14T17:11:00.231Z,96.05
2018-11-14T17:13:30.051Z,96.20
2018-11-14T17:15:59.691Z,96.36
2018-11-14T17:18:29.686Z,96.31
2018-11-14T17:20:59.939Z,96.44
2018-11-14T17:23:29.635Z,96.82
2018-11-14T17:25:59.460Z,96.94
2018-11-14T17:28:34.635Z,96.70
2018-11-14T17:31:04.332Z,96.22
2018-11-14T17:33:36.375Z,96.18
2018-11-14T17:36:06.270Z,96.27
2018-11-14T17:38:35.919Z,97.32
2018-11-14T17:41:05.623Z,97.21
2018-11-14T17:43:36.599Z,96.95
2018-11-14T17:46:06.767Z,96.83
2018-11-14T17:48:36.569Z,97.07
2018-11-14T17:51:06.519Z,97.66
2018-11-14T17:53:36.324Z,97.59
2018-11-14T17:56:06.176Z,97.82
2018-11-14T17:58:35.880Z,97.82
2018-11-14T18:01:05.963Z,98.39
2018-11-14T18:03:36.269Z,97.85
2018-11-14T18:06:08.410Z,98.82
2018-11-14T18:08:38.224Z,99.36
2018-11-14T18:11:08.424Z,100.00
2018-11-14T18:13:38.588Z,100.00
2018-11-14T18:16:08.593Z,99.87
2018-11-14T18:18:38.504Z,99.75
2018-11-14T18:21:09.451Z,100.00
2018-11-14T18:23:39.169Z,99.94
2018-11-14T18:26:09.460Z,100.00
2018-11-14T18:28:39.289Z,100.00
2018-11-14T18:31:09.200Z,100.00
2018-11-14T18:33:39.840Z,100.00
2018-11-14T18:36:15.082Z,100.00
2018-11-14T18:38:44.903Z,100.00
2018-11-14T18:41:33.185Z,100.00
2018-11-14T18:44:18.205Z,99.93
2018-11-14T18:46:48.239Z,100.00
2018-11-14T18:49:20.971Z,100.00
2018-11-14T18:51:52.066Z,98.59
2018-11-14T18:54:22.203Z,98.86
2018-11-14T18:56:52.319Z,98.39
2018-11-14T18:59:22.672Z,98.46
2018-11-14T19:02:12.668Z,98.96
2018-11-14T19:04:42.656Z,99.23
2018-11-14T19:07:21.800Z,99.95
2018-11-14T19:09:51.868Z,100.00
2018-11-14T19:12:21.700Z,100.00
2018-11-14T19:14:51.790Z,100.00
2018-11-14T19:17:22.277Z,100.00
2018-11-14T19:19:52.336Z,100.00
2018-11-14T19:22:41.662Z,100.00
2018-11-14T19:25:13.275Z,100.00
2018-11-14T19:27:44.138Z,100.00
2018-11-14T19:30:15.636Z,100.00
2018-11-14T19:32:46.480Z,100.00
2018-11-14T19:35:17.914Z,100.00
2018-11-14T19:37:49.648Z,100.00
2018-11-14T19:40:26.347Z,100.00
2018-11-14T19:42:57.293Z,100.00
2018-11-14T19:45:28.697Z,100.00
2018-11-14T19:47:58.433Z,100.00
2018-11-14T19:50:29.684Z,100.00
2018-11-14T19:53:00.589Z,100.00
2018-11-14T19:55:31.074Z,100.00
2018-11-14T19:58:02.699Z,100.00
2018-11-14T20:00:35.584Z,100.00
2018-11-14T20:03:11.379Z,100.00
2018-11-14T20:05:41.472Z,100.00
2018-11-14T20:08:11.500Z,100.00
2018-11-14T20:10:45.114Z,100.00
2018-11-14T20:13:17.444Z,100.00
2018-11-14T20:15:47.410Z,100.00
2018-11-14T20:18:17.416Z,100.00
2018-11-14T20:20:48.585Z,100.00
2018-11-14T20:23:19.279Z,100.00
2018-11-14T20:25:49.034Z,100.00
2018-11-14T20:28:19.018Z,100.00
2018-11-14T20:30:51.825Z,100.00
2018-11-14T20:33:53.387Z,100.00
2018-11-14T20:36:23.447Z,100.00
2018-11-14T20:52:36.478Z,100.00
2018-11-14T20:55:12.641Z,100.00
2018-11-14T20:57:43.202Z,100.00
2018-11-14T21:00:36.381Z,100.00
2018-11-14T21:03:07.288Z,100.00
2018-11-14T21:05:37.450Z,100.00
2018-11-14T21:08:08.676Z,100.00
2018-11-14T21:10:38.594Z,100.00
2018-11-14T21:13:08.528Z,100.00
2018-11-14T21:15:45.373Z,100.00
2018-11-14T21:18:15.395Z,100.00
2018-11-14T21:20:45.092Z,100.00
2018-11-14T21:23:15.727Z,100.00
2018-11-14T21:25:45.865Z,100.00
2018-11-14T21:28:15.883Z,100.00
2018-11-14T21:30:45.652Z,100.00
2018-11-14T21:33:15.490Z,100.00
2018-11-14T21:35:45.660Z,100.00
2018-11-14T21:38:15.494Z,100.00
2018-11-14T21:40:46.792Z,100.00
2018-11-14T21:43:16.645Z,100.00
2018-11-14T21:45:47.544Z,100.00
2018-11-14T21:48:18.305Z,100.00
2018-11-14T21:50:48.055Z,100.00
2018-11-14T21:53:18.363Z,100.00
2018-11-14T21:55:48.355Z,100.00
2018-11-14T21:58:18.015Z,100.00
2018-11-14T22:00:47.677Z,100.00
2018-11-14T22:03:17.922Z,100.00
2018-11-14T22:05:47.639Z,100.00
2018-11-14T22:08:19.636Z,100.00
2018-11-14T22:10:49.668Z,100.00
2018-11-14T22:13:19.476Z,100.00
2018-11-14T22:15:49.253Z,100.00
2018-11-14T22:18:19.039Z,100.00
2018-11-14T22:20:48.761Z,100.00
2018-11-14T22:23:18.730Z,100.00
2018-11-14T22:25:48.640Z,100.00
2018-11-14T22:28:18.466Z,100.00
2018-11-14T22:30:48.872Z,100.00
2018-11-14T22:33:18.684Z,100.00
2018-11-14T22:35:49.832Z,100.00
2018-11-14T22:38:19.615Z,100.00
2018-11-14T22:43:21.009Z,100.00
2018-11-14T22:45:50.832Z,100.00
2018-11-14T22:48:20.871Z,100.00
2018-11-14T22:50:50.565Z,100.00
2018-11-14T22:53:20.335Z,100.00
2018-11-14T22:55:50.069Z,100.00
2018-11-14T22:58:19.788Z,100.00
2018-11-14T23:00:49.530Z,100.00
2018-11-14T23:03:19.232Z,100.00
2018-11-14T23:05:49.274Z,100.00
2018-11-14T23:08:19.200Z,100.00
2018-11-14T23:10:49.380Z,100.00
2018-11-14T23:13:19.178Z,100.00
2018-11-14T23:15:48.920Z,100.00
2018-11-14T23:18:18.697Z,100.00
2018-11-14T23:20:49.363Z,100.00
2018-11-14T23:23:19.515Z,100.00
2018-11-14T23:25:49.143Z,100.00
2018-11-14T23:28:18.857Z,100.00
2018-11-14T23:30:48.625Z,100.00
2018-11-14T23:33:18.540Z,100.00
2018-11-14T23:35:49.242Z,100.00
2018-11-14T23:38:19.195Z,100.00
2018-11-14T23:40:48.955Z,100.00
2018-11-14T23:43:46.937Z,100.00
2018-11-14T23:46:17.190Z,100.00
2018-11-14T23:48:47.463Z,100.00
2018-11-14T23:51:17.302Z,100.00
2018-11-14T23:53:47.434Z,100.00
2018-11-14T23:56:17.140Z,100.00
2018-11-14T23:58:46.853Z,100.00
